createdAt,value
2023-04-23T00:01:17.808Z,12.40
2023-04-23T00:03:45.492Z,12.10
2023-04-23T00:06:14.518Z,12.00
2023-04-23T00:08:42.203Z,12.00
2023-04-23T00:11:10.282Z,12.10
2023-04-23T00:13:37.860Z,12.10
2023-04-23T00:16:05.486Z,12.20
2023-04-23T00:18:32.698Z,12.30
2023-04-23T00:20:59.991Z,12.20
2023-04-23T00:23:27.073Z,12.20
2023-04-23T00:25:54.073Z,12.00
2023-04-23T00:28:22.357Z,12.10
2023-04-23T00:30:49.729Z,12.10
2023-04-23T00:33:16.706Z,12.20
2023-04-23T00:35:43.841Z,12.30
2023-04-23T00:38:10.845Z,12.30
2023-04-23T00:40:37.968Z,12.20
2023-04-23T00:43:05.222Z,12.30
2023-04-23T00:45:32.213Z,12.10
2023-04-23T00:47:59.689Z,12.10
2023-04-23T00:50:26.736Z,12.10
2023-04-23T00:52:53.759Z,12.20
2023-04-23T00:55:23.608Z,12.20
2023-04-23T00:57:50.993Z,12.30
2023-04-23T01:00:20.439Z,12.20
2023-04-23T01:02:49.160Z,12.10
2023-04-23T01:05:18.352Z,12.00
2023-04-23T01:07:46.114Z,12.00
2023-04-23T01:10:13.545Z,12.10
2023-04-23T01:12:40.410Z,12.10
2023-04-23T01:15:09.119Z,12.00
2023-04-23T01:17:37.303Z,12.10
2023-04-23T01:20:06.724Z,12.10
2023-04-23T01:22:38.320Z,12.00
2023-04-23T01:25:06.072Z,12.10
2023-04-23T01:27:36.008Z,12.00
2023-04-23T01:30:05.948Z,11.80
2023-04-23T01:32:33.334Z,11.70
2023-04-23T01:35:00.474Z,11.60
2023-04-23T01:37:28.286Z,11.60
2023-04-23T01:39:55.137Z,11.60
2023-04-23T01:42:23.446Z,11.70
2023-04-23T01:44:50.651Z,11.70
2023-04-23T01:47:19.176Z,11.60
2023-04-23T01:49:46.036Z,11.60
2023-04-23T01:52:13.140Z,11.50
2023-04-23T01:54:40.228Z,11.40
2023-04-23T01:57:07.491Z,11.50
2023-04-23T01:59:34.364Z,11.50
2023-04-23T02:02:01.272Z,11.50
2023-04-23T02:04:30.249Z,11.40
2023-04-23T02:06:57.434Z,11.40
2023-04-23T02:09:24.353Z,11.50
2023-04-23T02:11:51.416Z,11.70
2023-04-23T02:14:18.366Z,11.60
2023-04-23T02:16:45.642Z,11.50
2023-04-23T02:19:14.112Z,11.50
2023-04-23T02:21:42.999Z,11.40
2023-04-23T02:24:10.046Z,11.30
2023-04-23T02:26:37.068Z,11.30
2023-04-23T02:29:04.140Z,11.40
2023-04-23T02:31:31.121Z,11.40
2023-04-23T02:33:58.147Z,11.30
2023-04-23T02:36:30.833Z,11.30
2023-04-23T02:38:57.782Z,11.30
2023-04-23T02:41:24.685Z,11.30
2023-04-23T02:43:51.713Z,11.30
2023-04-23T02:46:18.671Z,11.20
2023-04-23T02:48:45.568Z,11.10
2023-04-23T02:51:14.141Z,11.20
2023-04-23T02:53:41.101Z,11.10
2023-04-23T02:56:08.010Z,11.20
2023-04-23T02:58:35.313Z,11.20
2023-04-23T03:01:02.814Z,11.40
2023-04-23T03:03:32.183Z,11.40
2023-04-23T03:06:01.356Z,11.30
2023-04-23T03:08:29.093Z,11.20
2023-04-23T03:10:56.202Z,11.20
2023-04-23T03:13:23.197Z,11.20
2023-04-23T03:15:51.120Z,11.20
2023-04-23T03:18:17.986Z,11.20
2023-04-23T03:20:44.963Z,11.20
2023-04-23T03:23:12.050Z,11.20
2023-04-23T03:25:39.457Z,11.10
2023-04-23T03:28:06.585Z,11.10
2023-04-23T03:30:33.736Z,11.10
2023-04-23T03:33:02.584Z,11.10
2023-04-23T03:35:29.779Z,11.10
2023-04-23T03:37:56.816Z,11.20
2023-04-23T03:40:23.819Z,11.30
2023-04-23T03:42:50.659Z,11.00
2023-04-23T03:45:17.465Z,11.10
2023-04-23T03:47:44.444Z,11.10
2023-04-23T03:50:13.512Z,11.20
2023-04-23T03:52:40.856Z,11.30
2023-04-23T03:55:08.172Z,11.30
2023-04-23T03:57:36.263Z,11.30
2023-04-23T04:00:04.980Z,11.10
2023-04-23T04:02:40.034Z,11.00
2023-04-23T04:05:13.679Z,11.10
2023-04-23T04:07:41.301Z,11.10
2023-04-23T04:10:08.497Z,11.10
2023-04-23T04:12:36.343Z,11.20
2023-04-23T04:15:04.243Z,11.20
2023-04-23T04:17:33.292Z,11.20
2023-04-23T04:20:00.527Z,11.20
2023-04-23T04:22:27.475Z,11.00
2023-04-23T04:24:54.788Z,11.00
2023-04-23T04:27:21.861Z,10.90
2023-04-23T04:29:48.948Z,10.90
2023-04-23T04:32:16.280Z,10.90
2023-04-23T04:34:43.536Z,10.80
2023-04-23T04:37:11.631Z,10.80
2023-04-23T04:39:38.428Z,10.80
2023-04-23T04:42:06.954Z,10.80
2023-04-23T04:44:36.340Z,10.70
2023-04-23T04:47:03.461Z,10.70
2023-04-23T04:49:30.544Z,10.70
2023-04-23T04:51:57.536Z,10.80
2023-04-23T04:54:24.539Z,10.80
2023-04-23T04:56:51.379Z,10.80
2023-04-23T04:59:18.152Z,10.80
2023-04-23T05:01:45.386Z,10.90
2023-04-23T05:04:12.542Z,10.90
2023-04-23T05:06:39.668Z,10.90
2023-04-23T05:09:06.643Z,10.90
2023-04-23T05:11:33.598Z,10.80
2023-04-23T05:14:00.583Z,10.80
2023-04-23T05:16:27.651Z,10.90
2023-04-23T05:18:54.695Z,10.90
2023-04-23T05:21:22.010Z,11.10
2023-04-23T05:23:49.870Z,11.00
2023-04-23T05:26:18.273Z,11.10
2023-04-23T05:28:45.117Z,11.10
2023-04-23T05:31:12.127Z,11.10
2023-04-23T05:33:49.265Z,11.10
2023-04-23T05:36:17.140Z,11.00
2023-04-23T05:38:44.084Z,11.10
2023-04-23T05:41:11.035Z,11.00
2023-04-23T05:43:38.023Z,11.10
2023-04-23T05:46:07.458Z,11.10
2023-04-23T05:48:35.205Z,11.30
2023-04-23T05:51:02.173Z,11.20
2023-04-23T05:53:29.415Z,11.40
2023-04-23T05:55:56.633Z,11.40
2023-04-23T05:58:24.146Z,11.20
2023-04-23T06:00:53.108Z,11.30
2023-04-23T06:03:20.591Z,11.40
2023-04-23T06:05:48.375Z,11.60
2023-04-23T06:08:15.325Z,11.60
2023-04-23T06:10:42.126Z,11.70
2023-04-23T06:13:09.365Z,11.60
2023-04-23T06:15:36.235Z,11.60
2023-04-23T06:18:03.289Z,11.70
2023-04-23T06:20:30.505Z,11.70
2023-04-23T06:22:57.392Z,11.80
2023-04-23T06:25:24.381Z,11.80
2023-04-23T06:27:51.193Z,11.80
2023-04-23T06:30:18.014Z,11.90
2023-04-23T06:32:44.933Z,12.00
2023-04-23T06:35:11.832Z,12.20
2023-04-23T06:37:38.653Z,12.30
2023-04-23T06:40:06.676Z,12.20
2023-04-23T06:42:33.554Z,12.30
2023-04-23T06:45:06.086Z,12.40
2023-04-23T06:47:33.711Z,12.50
2023-04-23T06:50:00.957Z,12.60
2023-04-23T06:52:28.053Z,12.70
2023-04-23T06:54:55.169Z,12.70
2023-04-23T06:57:22.230Z,12.80
2023-04-23T06:59:49.237Z,12.80
2023-04-23T07:02:16.387Z,12.80
2023-04-23T07:04:44.463Z,12.80
2023-04-23T07:07:12.124Z,12.90
2023-04-23T07:09:39.369Z,12.90
2023-04-23T07:12:06.469Z,12.80
2023-04-23T07:14:33.437Z,12.90
2023-04-23T07:17:00.500Z,13.00
2023-04-23T07:19:27.618Z,13.10
2023-04-23T07:21:54.613Z,13.10
2023-04-23T07:24:21.620Z,13.00
2023-04-23T07:26:48.525Z,13.00
2023-04-23T07:29:15.638Z,13.00
2023-04-23T07:31:42.684Z,13.10
2023-04-23T07:34:09.982Z,13.30
2023-04-23T07:36:36.964Z,13.40
2023-04-23T07:39:05.314Z,13.40
2023-04-23T07:41:33.000Z,13.30
2023-04-23T07:43:59.943Z,13.30
2023-04-23T07:46:27.191Z,13.40
2023-04-23T07:48:54.331Z,13.50
2023-04-23T07:51:22.644Z,13.60
2023-04-23T07:53:51.889Z,13.70
2023-04-23T07:56:18.906Z,13.70
2023-04-23T07:58:45.977Z,13.70
2023-04-23T08:01:12.914Z,13.60
2023-04-23T08:03:40.694Z,13.60
2023-04-23T08:06:07.956Z,13.60
2023-04-23T08:08:34.885Z,13.80
2023-04-23T08:11:02.199Z,13.90
2023-04-23T08:13:29.070Z,14.00
2023-04-23T08:15:55.958Z,14.20
2023-04-23T08:18:22.984Z,14.30
2023-04-23T08:20:49.979Z,14.50
2023-04-23T08:23:17.200Z,14.60
2023-04-23T08:25:44.428Z,14.70
2023-04-23T08:28:11.413Z,14.50
2023-04-23T08:30:38.933Z,14.30
2023-04-23T08:33:05.890Z,14.30
2023-04-23T08:35:32.741Z,14.40
2023-04-23T08:37:59.834Z,14.60
2023-04-23T08:40:31.394Z,14.70
2023-04-23T08:43:02.959Z,14.60
2023-04-23T08:45:30.990Z,14.60
2023-04-23T08:48:02.139Z,14.40
2023-04-23T08:50:31.188Z,14.60
2023-04-23T08:52:58.775Z,14.60
2023-04-23T08:55:26.266Z,14.40
2023-04-23T08:57:53.436Z,14.50
2023-04-23T09:00:23.273Z,14.60
2023-04-23T09:02:51.123Z,14.80
2023-04-23T09:05:19.142Z,14.90
2023-04-23T09:07:46.271Z,14.70
2023-04-23T09:10:17.704Z,14.70
2023-04-23T09:12:45.628Z,14.90
2023-04-23T09:15:14.056Z,14.80
2023-04-23T09:17:44.048Z,14.80
2023-04-23T09:20:13.061Z,14.80
2023-04-23T09:22:40.081Z,14.90
2023-04-23T09:25:12.137Z,14.80
2023-04-23T09:27:40.193Z,14.70
2023-04-23T09:30:09.997Z,14.70
2023-04-23T09:32:42.508Z,14.70
2023-04-23T09:35:13.898Z,14.60
2023-04-23T09:37:49.123Z,14.80
2023-04-23T09:40:20.077Z,14.70
2023-04-23T09:42:55.873Z,14.80
2023-04-23T09:45:25.972Z,14.90
2023-04-23T09:48:05.325Z,14.90
2023-04-23T09:50:44.020Z,15.10
2023-04-23T09:53:14.432Z,15.00
2023-04-23T09:55:43.068Z,14.90
2023-04-23T09:58:15.608Z,14.90
2023-04-23T10:00:43.409Z,14.80
2023-04-23T10:03:12.475Z,14.80
2023-04-23T10:05:59.861Z,14.90
2023-04-23T10:08:29.056Z,14.80
2023-04-23T10:11:09.644Z,14.80
2023-04-23T10:13:42.476Z,14.80
2023-04-23T10:16:21.285Z,14.70
2023-04-23T10:18:52.897Z,14.70
2023-04-23T10:21:20.727Z,15.00
2023-04-23T10:23:50.144Z,15.00
2023-04-23T10:26:17.339Z,15.00
2023-04-23T10:28:48.203Z,15.40
2023-04-23T10:31:15.898Z,15.30
2023-04-23T10:33:55.901Z,15.10
2023-04-23T10:36:27.946Z,15.00
2023-04-23T10:38:59.017Z,14.90
2023-04-23T10:41:35.819Z,14.80
2023-04-23T10:44:07.269Z,14.80
2023-04-23T10:46:37.093Z,14.50
2023-04-23T10:49:09.730Z,14.60
2023-04-23T10:54:09.919Z,14.40
2023-04-23T10:56:39.369Z,14.40
2023-04-23T10:59:29.808Z,14.50
2023-04-23T11:02:06.748Z,14.60
2023-04-23T11:04:35.920Z,14.50
2023-04-23T11:07:10.475Z,14.60
2023-04-23T11:09:40.783Z,14.50
2023-04-23T11:12:11.039Z,14.40
2023-04-23T11:14:46.892Z,14.40
2023-04-23T11:17:18.794Z,14.40
2023-04-23T11:20:13.655Z,14.40
2023-04-23T11:22:43.857Z,14.50
2023-04-23T11:25:34.966Z,14.50
2023-04-23T11:28:01.863Z,14.50
2023-04-23T11:30:32.851Z,14.50
2023-04-23T11:33:01.468Z,14.50
2023-04-23T11:35:30.367Z,14.50
2023-04-23T11:37:57.638Z,14.50
2023-04-23T11:40:24.889Z,14.40
2023-04-23T11:42:55.497Z,14.30
2023-04-23T11:45:27.617Z,14.30
2023-04-23T11:47:57.172Z,14.40
2023-04-23T11:50:27.309Z,14.50
2023-04-23T11:52:55.199Z,14.50
2023-04-23T11:55:23.441Z,14.60
2023-04-23T11:57:52.550Z,14.50
2023-04-23T12:00:22.125Z,14.60
2023-04-23T12:02:55.203Z,14.60
2023-04-23T12:05:49.107Z,14.60
2023-04-23T12:08:20.488Z,14.60
2023-04-23T12:10:53.360Z,14.60
2023-04-23T12:13:24.223Z,14.50
2023-04-23T12:15:56.670Z,14.40
2023-04-23T12:18:41.537Z,14.50
2023-04-23T12:21:10.743Z,14.60
2023-04-23T12:23:44.781Z,14.60
2023-04-23T12:26:13.860Z,14.60
2023-04-23T12:28:55.737Z,14.60
2023-04-23T12:31:30.301Z,14.40
2023-04-23T12:34:08.235Z,14.40
2023-04-23T12:36:41.002Z,14.60
2023-04-23T12:39:29.674Z,14.50
2023-04-23T12:42:08.310Z,14.80
2023-04-23T12:44:36.398Z,14.90
2023-04-23T12:47:05.993Z,15.00
2023-04-23T12:49:34.560Z,15.00
2023-04-23T12:52:03.715Z,15.10
2023-04-23T12:54:38.584Z,14.90
2023-04-23T12:57:12.292Z,14.90
2023-04-23T12:59:39.326Z,14.90
2023-04-23T13:02:07.299Z,14.90
2023-04-23T13:04:36.470Z,14.80
2023-04-23T13:07:03.957Z,15.00
2023-04-23T13:09:31.527Z,15.00
2023-04-23T13:12:00.397Z,14.90
2023-04-23T13:14:28.391Z,14.90
2023-04-23T13:16:55.685Z,14.90
2023-04-23T13:19:22.713Z,14.90
2023-04-23T13:21:49.806Z,14.90
2023-04-23T13:24:16.894Z,14.90
2023-04-23T13:26:43.716Z,14.80
2023-04-23T13:29:10.663Z,14.80
2023-04-23T13:31:37.817Z,14.90
2023-04-23T13:34:04.766Z,14.90
2023-04-23T13:36:31.821Z,14.90
2023-04-23T13:38:58.945Z,15.10
2023-04-23T13:41:25.996Z,15.30
2023-04-23T13:43:52.988Z,15.50
2023-04-23T13:46:20.591Z,15.50
2023-04-23T13:48:47.579Z,15.60
2023-04-23T13:51:33.290Z,15.70
2023-04-23T13:54:01.541Z,15.60
2023-04-23T13:56:30.194Z,15.50
2023-04-23T13:59:18.170Z,15.40
2023-04-23T14:01:47.320Z,15.40
2023-04-23T14:04:14.314Z,15.40
2023-04-23T14:06:42.509Z,15.40
2023-04-23T14:09:12.606Z,15.30
2023-04-23T14:11:41.644Z,15.30
2023-04-23T14:14:08.642Z,15.20
2023-04-23T14:16:35.770Z,15.10
2023-04-23T14:19:02.759Z,15.10
2023-04-23T14:21:30.261Z,15.10
2023-04-23T14:24:01.536Z,15.10
2023-04-23T14:26:47.959Z,15.30
2023-04-23T14:29:47.147Z,15.30
2023-04-23T14:32:14.353Z,15.30
2023-04-23T14:34:41.431Z,15.20
2023-04-23T14:37:08.753Z,15.10
2023-04-23T14:39:37.654Z,15.20
2023-04-23T14:42:08.597Z,15.10
2023-04-23T14:44:35.880Z,15.00
2023-04-23T14:47:31.677Z,14.90
2023-04-23T14:50:01.520Z,14.80
2023-04-23T14:52:47.503Z,14.70
2023-04-23T14:55:14.542Z,14.80
2023-04-23T14:57:41.512Z,14.80
2023-04-23T15:00:13.148Z,14.90
2023-04-23T15:02:41.922Z,14.90
2023-04-23T15:05:10.030Z,14.90
2023-04-23T15:07:37.810Z,14.80
2023-04-23T15:10:06.663Z,14.60
2023-04-23T15:12:55.262Z,14.40
2023-04-23T15:15:45.392Z,14.50
2023-04-23T15:18:15.755Z,14.40
2023-04-23T15:20:43.861Z,14.20
2023-04-23T15:23:11.361Z,14.20
2023-04-23T15:25:39.452Z,14.20
2023-04-23T15:28:07.534Z,14.10
2023-04-23T15:30:34.747Z,14.20
2023-04-23T15:33:01.892Z,14.30
2023-04-23T15:35:28.933Z,14.40
2023-04-23T15:37:55.834Z,14.40
2023-04-23T15:40:23.246Z,14.40
2023-04-23T15:42:50.470Z,14.50
2023-04-23T15:45:17.464Z,14.50
2023-04-23T15:47:44.469Z,14.30
2023-04-23T15:50:12.998Z,14.40
2023-04-23T15:52:41.754Z,14.50
2023-04-23T15:55:09.277Z,14.50
2023-04-23T15:57:36.108Z,14.50
2023-04-23T16:00:03.531Z,14.40
2023-04-23T16:02:34.631Z,14.40
2023-04-23T16:05:01.936Z,14.40
2023-04-23T16:07:29.224Z,14.50
2023-04-23T16:09:56.063Z,14.50
2023-04-23T16:12:23.016Z,14.50
2023-04-23T16:14:49.984Z,14.50
2023-04-23T16:17:17.062Z,14.50
2023-04-23T16:19:44.536Z,14.40
2023-04-23T16:22:11.845Z,14.30
2023-04-23T16:24:38.856Z,14.30
2023-04-23T16:27:06.833Z,14.40
2023-04-23T16:29:33.860Z,14.40
2023-04-23T16:32:01.043Z,14.30
2023-04-23T16:34:28.205Z,14.30
2023-04-23T16:36:55.275Z,14.20
2023-04-23T16:39:22.326Z,14.30
2023-04-23T16:41:49.316Z,14.30
2023-04-23T16:44:16.404Z,14.40
2023-04-23T16:46:43.610Z,14.50
2023-04-23T16:49:10.499Z,14.70
2023-04-23T16:51:37.393Z,14.50
2023-04-23T16:54:04.436Z,14.40
2023-04-23T16:56:31.350Z,14.20
2023-04-23T16:58:59.170Z,14.30
2023-04-23T17:01:26.127Z,14.10
2023-04-23T17:03:54.058Z,14.00
2023-04-23T17:06:28.987Z,13.90
2023-04-23T17:08:57.880Z,13.60
2023-04-23T17:11:26.259Z,12.60
2023-04-23T17:13:53.583Z,12.20
2023-04-23T17:16:20.847Z,11.90
2023-04-23T17:18:48.245Z,11.80
2023-04-23T17:21:15.554Z,11.80
2023-04-23T17:23:42.405Z,11.70
2023-04-23T17:26:09.251Z,11.50
2023-04-23T17:28:36.228Z,11.50
2023-04-23T17:31:03.569Z,11.50
2023-04-23T17:33:31.242Z,11.40
2023-04-23T17:35:58.162Z,11.30
2023-04-23T17:38:26.164Z,11.30
2023-04-23T17:40:53.587Z,11.20
2023-04-23T17:43:21.373Z,11.30
2023-04-23T17:45:48.877Z,11.30
2023-04-23T17:48:16.157Z,11.30
2023-04-23T17:50:44.104Z,11.30
2023-04-23T17:53:11.163Z,11.30
2023-04-23T17:55:38.412Z,11.40
2023-04-23T17:58:06.047Z,11.40
2023-04-23T18:00:43.513Z,11.40
2023-04-23T18:03:16.544Z,11.30
2023-04-23T18:05:45.659Z,11.30
2023-04-23T18:08:13.671Z,11.40
2023-04-23T18:10:40.966Z,11.30
2023-04-23T18:13:11.578Z,11.40
2023-04-23T18:15:41.130Z,11.40
2023-04-23T18:18:08.714Z,11.50
2023-04-23T18:20:38.333Z,11.60
2023-04-23T18:23:06.654Z,11.50
2023-04-23T18:25:34.130Z,11.60
2023-04-23T18:28:01.134Z,11.70
2023-04-23T18:30:28.844Z,11.60
2023-04-23T18:35:47.307Z,11.70
2023-04-23T18:38:48.208Z,11.60
2023-04-23T18:41:15.345Z,11.60
2023-04-23T18:43:42.447Z,11.60
2023-04-23T18:46:09.623Z,11.50
2023-04-23T18:49:07.532Z,11.50
2023-04-23T18:51:43.646Z,11.60
2023-04-23T18:54:14.892Z,11.70
2023-04-23T18:56:42.109Z,11.70
2023-04-23T18:59:09.048Z,11.70
2023-04-23T19:01:36.610Z,11.70
2023-04-23T19:04:04.476Z,11.70
2023-04-23T19:09:15.599Z,11.70
2023-04-23T19:11:42.700Z,11.60
2023-04-23T19:14:09.718Z,11.70
2023-04-23T19:16:36.884Z,11.80
2023-04-23T19:19:03.843Z,11.80
2023-04-23T19:21:31.791Z,11.70
2023-04-23T19:23:59.221Z,11.90
2023-04-23T19:26:26.485Z,11.70
2023-04-23T19:28:53.728Z,11.70
2023-04-23T19:31:20.740Z,11.70
2023-04-23T19:33:48.075Z,11.60
2023-04-23T19:36:15.373Z,11.50
2023-04-23T19:38:42.350Z,11.40
2023-04-23T19:41:09.425Z,11.30
2023-04-23T19:43:36.424Z,11.30
2023-04-23T19:46:03.637Z,11.30
2023-04-23T19:48:31.162Z,11.30
2023-04-23T19:50:59.545Z,11.30
2023-04-23T19:53:27.710Z,11.40
2023-04-23T19:55:54.729Z,11.60
2023-04-23T19:58:21.570Z,11.50
2023-04-23T20:00:48.621Z,11.60
2023-04-23T20:03:15.785Z,11.60
2023-04-23T20:05:44.910Z,11.60
2023-04-23T20:08:15.622Z,11.60
2023-04-23T20:10:43.329Z,11.60
2023-04-23T20:13:10.336Z,11.70
2023-04-23T20:15:37.663Z,11.50
2023-04-23T20:18:05.402Z,11.50
2023-04-23T20:20:34.021Z,11.60
2023-04-23T20:23:01.006Z,11.60
2023-04-23T20:25:28.046Z,11.50
2023-04-23T20:27:57.062Z,11.50
2023-04-23T20:30:24.264Z,11.40
2023-04-23T20:32:51.691Z,11.50
2023-04-23T20:35:18.545Z,11.50
2023-04-23T20:37:45.973Z,11.60
2023-04-23T20:40:14.435Z,11.60
2023-04-23T20:42:42.495Z,11.40
2023-04-23T20:45:13.064Z,11.40
2023-04-23T20:47:40.117Z,11.30
2023-04-23T20:50:07.348Z,11.40
2023-04-23T20:52:34.241Z,11.30
2023-04-23T20:55:01.177Z,11.30
2023-04-23T20:57:28.124Z,11.30
2023-04-23T20:59:54.920Z,11.20
2023-04-23T21:02:22.003Z,11.30
2023-04-23T21:04:49.396Z,11.30
2023-04-23T21:07:16.759Z,11.20
2023-04-23T21:09:43.864Z,11.20
2023-04-23T21:12:11.283Z,11.10
2023-04-23T21:14:38.618Z,11.20
2023-04-23T21:17:05.737Z,11.20
2023-04-23T21:19:32.537Z,11.20
2023-04-23T21:21:59.444Z,11.20
2023-04-23T21:24:26.435Z,11.30
2023-04-23T21:26:53.483Z,11.30
2023-04-23T21:29:20.556Z,11.30
2023-04-23T21:31:51.547Z,11.30
2023-04-23T21:34:19.703Z,11.30
2023-04-23T21:36:46.882Z,11.40
2023-04-23T21:39:13.868Z,11.40
2023-04-23T21:41:41.236Z,11.40
2023-04-23T21:44:08.564Z,11.20
2023-04-23T21:46:35.647Z,11.20
2023-04-23T21:49:02.554Z,11.20
2023-04-23T21:51:30.154Z,11.20
2023-04-23T21:53:57.257Z,11.10
2023-04-23T21:56:24.327Z,11.20
2023-04-23T21:58:51.157Z,11.10
2023-04-23T22:01:18.508Z,11.10
2023-04-23T22:03:46.839Z,11.20
2023-04-23T22:06:15.825Z,11.10
2023-04-23T22:08:44.802Z,11.10
2023-04-23T22:11:12.886Z,11.10
2023-04-23T22:13:39.843Z,11.40
2023-04-23T22:16:16.416Z,11.30
2023-04-23T22:18:47.966Z,11.30
2023-04-23T22:21:15.009Z,11.30
2023-04-23T22:23:41.950Z,11.40
2023-04-23T22:26:09.019Z,11.30
2023-04-23T22:28:36.062Z,11.30
2023-04-23T22:31:03.075Z,11.30
2023-04-23T22:33:30.056Z,11.40
2023-04-23T22:35:56.897Z,11.40
2023-04-23T22:38:23.788Z,11.50
2023-04-23T22:40:50.712Z,11.30
2023-04-23T22:43:17.547Z,11.40
2023-04-23T22:45:44.491Z,11.50
2023-04-23T22:48:11.574Z,11.40
2023-04-23T22:50:40.095Z,11.30
2023-04-23T22:53:07.209Z,11.40
2023-04-23T22:55:34.729Z,11.40
2023-04-23T22:58:01.855Z,11.40
2023-04-23T23:00:28.822Z,11.40
2023-04-23T23:02:55.886Z,11.30
2023-04-23T23:05:23.372Z,11.40
2023-04-23T23:07:50.296Z,11.40
2023-04-23T23:10:17.216Z,11.30
2023-04-23T23:12:44.091Z,11.40
2023-04-23T23:15:11.503Z,11.50
2023-04-23T23:17:38.542Z,11.50
2023-04-23T23:20:09.120Z,11.50
2023-04-23T23:22:37.503Z,11.40
2023-04-23T23:25:06.968Z,11.30
2023-04-23T23:27:34.054Z,11.30
2023-04-23T23:30:05.580Z,11.30
2023-04-23T23:32:33.582Z,11.30
2023-04-23T23:35:00.523Z,11.30
2023-04-23T23:37:27.738Z,11.40
2023-04-23T23:39:54.592Z,11.40
2023-04-23T23:42:21.709Z,11.40
2023-04-23T23:44:48.563Z,11.20
2023-04-23T23:47:15.476Z,11.20
2023-04-23T23:49:42.568Z,11.30
2023-04-23T23:52:09.672Z,11.20
2023-04-23T23:54:36.557Z,11.10
2023-04-23T23:57:03.721Z,11.20
2023-04-23T23:59:30.776Z,11.20
